Time;durP1;ratioP1;P1;durP2;ratioP2;P2;SDS_P1;SDS_P2;PMS_P1;PMS_P2;Temp;Humidity;BMP_temperature;BMP_pressure;BME280_temperature;BME280_humidity;BME280_pressure;Samples;Min_cycle;Max_cycle;Signal;HPM_P1;HPM_P2
2024/03/29 01:44:07;;;;;;;;;;;9.90;99.90;;;9.98;54.17;98165.78;5037553;28;19925;-82
2024/03/29 01:46:36;;;;;;;;;;;9.90;99.90;;;9.99;54.14;98170.03;5037333;28;19929;-83
2024/03/29 01:49:03;;;;;;;;;;;9.90;99.90;;;9.99;53.75;98170.03;5038985;28;19925;-83
2024/03/29 01:51:31;;;;;;;;;;;9.90;99.90;;;9.98;53.90;98165.78;5037080;28;20015;-83
2024/03/29 01:53:59;;;;;;;;;;;9.90;99.90;;;9.99;53.90;98167.38;5038454;28;19925;-83
2024/03/29 01:56:26;;;;;;;;;;;10.00;99.90;;;10.02;53.89;98161.53;5036677;28;20388;-83
2024/03/29 01:58:55;;;;;;;;;;;10.00;99.90;;;10.02;54.21;98158.88;5037004;28;20016;-83
2024/03/29 02:01:25;;;;;;;;;;;10.00;99.90;;;9.99;54.07;98154.06;5037997;28;20474;-83
2024/03/29 02:03:53;;;;;;;;;;;10.00;99.90;;;10.00;53.78;98148.50;5036065;28;19925;-82
2024/03/29 02:06:20;;;;;;;;;;;10.00;99.90;;;10.03;54.13;98139.16;5036016;28;19925;-82
2024/03/29 02:08:48;;;;;;;;;;;10.00;99.90;;;10.00;53.70;98145.84;5037534;28;19979;-82
2024/03/29 02:11:15;;;;;;;;;;;10.00;99.90;;;9.98;53.73;98139.97;5035493;28;20036;-82
2024/03/29 02:13:42;;;;;;;;;;;10.00;99.90;;;9.97;54.20;98122.38;5035168;28;20442;-82
2024/03/29 02:16:10;;;;;;;;;;;10.00;99.90;;;9.96;54.57;98115.47;5037928;28;19968;-82
2024/03/29 02:18:39;;;;;;;;;;;10.00;99.90;;;9.97;54.54;98103.75;5035992;28;20461;-82
2024/03/29 02:21:07;;;;;;;;;;;10.00;99.90;;;10.00;54.21;98094.41;5036302;28;20347;-83
2024/03/29 02:23:37;;;;;;;;;;;10.00;99.90;;;9.98;53.79;98102.69;5053139;28;20003;-83
2024/03/29 02:26:06;;;;;;;;;;;10.00;99.90;;;10.00;54.02;98095.25;5037709;28;19931;-82
2024/03/29 02:28:33;;;;;;;;;;;10.00;99.90;;;10.02;54.13;98085.13;5037467;28;20008;-82
2024/03/29 02:31:01;;;;;;;;;;;10.00;99.90;;;10.03;53.91;98088.56;5036388;28;19932;-83
2024/03/29 02:33:28;;;;;;;;;;;10.00;99.90;;;10.08;54.26;98085.91;5037364;28;20032;-82
2024/03/29 02:35:56;;;;;;;;;;;10.00;99.90;;;10.10;53.79;98098.94;5037027;28;19931;-82
2024/03/29 02:38:24;;;;;;;;;;;10.40;99.90;;;10.06;53.99;98088.84;5022292;28;19925;-82
2024/03/29 02:40:51;;;;;;;;;;;10.00;99.90;;;10.06;53.92;98090.72;5040166;28;19956;-82
2024/03/29 02:43:20;;;;;;;;;;;10.00;99.90;;;10.09;54.21;98106.13;5005460;28;19925;-82
2024/03/29 02:45:47;;;;;;;;;;;10.00;99.90;;;10.03;54.27;98123.19;5038364;28;19968;-83
2024/03/29 02:48:15;;;;;;;;;;;10.00;99.90;;;10.05;53.90;98118.38;5038529;28;19925;-82
2024/03/29 02:50:41;;;;;;;;;;;10.00;99.90;;;10.07;52.69;98132.25;5039327;28;19925;-82
2024/03/29 02:53:08;;;;;;;;;;;10.00;99.90;;;10.12;53.26;98118.13;5038067;28;19929;-83
2024/03/29 02:55:34;;;;;;;;;;;10.10;99.90;;;10.12;52.96;98128.78;5038154;28;20027;-82
2024/03/29 02:58:01;;;;;;;;;;;10.10;99.90;;;10.16;53.28;98128.00;5039703;28;19925;-82
2024/03/29 03:00:29;;;;;;;;;;;10.20;99.90;;;10.18;53.72;98128.53;5039163;28;19929;-83
2024/03/29 03:02:56;;;;;;;;;;;10.20;99.90;;;10.17;53.63;98145.56;5037750;28;19952;-83
2024/03/29 03:05:24;;;;;;;;;;;10.20;99.90;;;10.20;53.97;98138.91;5039496;28;19925;-83
2024/03/29 03:13:19;;;;;;;;;;;10.20;99.90;;;10.24;54.82;98134.66;5037739;28;19926;-83
2024/03/29 03:15:49;;;;;;;;;;;10.20;99.90;;;10.25;55.40;98123.78;5039148;28;20077;-82
2024/03/29 03:18:15;;;;;;;;;;;10.20;99.90;;;10.21;54.88;98136.00;5038395;28;19925;-82
2024/03/29 03:20:42;;;;;;;;;;;10.20;99.90;;;10.19;54.68;98145.28;5037312;28;19932;-82
2024/03/29 03:23:09;;;;;;;;;;;10.20;99.90;;;10.17;55.42;98134.91;5038355;28;19975;-83
2024/03/29 03:25:36;;;;;;;;;;;10.20;99.90;;;10.13;55.42;98127.72;5037343;28;20297;-83
2024/03/29 03:28:03;;;;;;;;;;;10.20;99.90;;;10.15;55.96;98129.06;5038822;28;19933;-82
2024/03/29 03:30:30;;;;;;;;;;;10.10;99.90;;;10.15;55.63;98109.59;5038666;28;20343;-82
2024/03/29 03:32:59;;;;;;;;;;;10.20;99.90;;;10.18;56.44;98117.06;5037318;28;20020;-82
2024/03/29 03:35:25;;;;;;;;;;;10.20;99.90;;;10.18;56.09;98112.53;5037683;28;19925;-82
2024/03/29 03:37:52;;;;;;;;;;;10.10;99.90;;;10.20;56.23;98120.25;5038182;28;19925;-82
2024/03/29 03:40:18;;;;;;;;;;;10.20;99.90;;;10.24;57.09;98113.34;5020640;28;19925;-83
2024/03/29 03:42:45;;;;;;;;;;;10.20;99.90;;;10.26;57.61;98108.59;4969156;28;2011092;-83
2024/03/29 03:45:11;;;;;;;;;;;10.20;99.90;;;10.27;57.80;98110.19;5038910;28;19931;-82
2024/03/29 03:47:38;;;;;;;;;;;10.20;99.90;;;10.28;58.19;98109.09;5038228;28;19925;-83
2024/03/29 03:50:07;;;;;;;;;;;10.10;99.90;;;10.27;57.54;98116.28;5054821;28;19925;-82
2024/03/29 03:52:34;;;;;;;;;;;10.10;99.90;;;10.28;58.16;98112.56;5038616;28;19925;-83
2024/03/29 03:55:00;;;;;;;;;;;10.10;99.90;;;10.28;58.03;98112.56;5039351;28;20019;-82
2024/03/29 03:57:27;;;;;;;;;;;10.10;99.90;;;10.25;58.13;98114.97;5054373;28;19925;-83
2024/03/29 03:59:53;;;;;;;;;;;10.10;99.90;;;10.26;58.83;98105.91;5039578;28;19950;-82
2024/03/29 04:02:20;;;;;;;;;;;10.10;99.90;;;10.27;59.09;98110.97;5037670;28;19925;-83
2024/03/29 04:04:47;;;;;;;;;;;10.10;99.90;;;10.28;59.01;98109.09;5039267;28;19925;-82
2024/03/29 04:07:15;;;;;;;;;;;10.10;99.90;;;10.29;58.97;98111.50;5004263;28;19969;-82
2024/03/29 04:09:42;;;;;;;;;;;10.10;99.90;;;10.27;58.55;98124.28;5038117;28;19948;-82
2024/03/29 04:12:09;;;;;;;;;;;10.10;99.90;;;10.25;58.46;98121.09;5038608;28;19976;-82
2024/03/29 04:14:35;;;;;;;;;;;10.10;99.90;;;10.26;58.81;98135.22;5039725;28;19925;-83
2024/03/29 04:17:02;;;;;;;;;;;10.10;99.90;;;10.25;59.32;98133.63;5053866;28;20312;-83
2024/03/29 04:19:28;;;;;;;;;;;10.00;99.90;;;10.26;59.03;98148.53;5020652;28;19992;-83
2024/03/29 04:21:56;;;;;;;;;;;10.00;99.90;;;10.25;59.41;98144.28;5037393;28;19925;-82
2024/03/29 04:24:23;;;;;;;;;;;10.00;99.90;;;10.24;59.79;98140.78;5021914;28;19932;-83
2024/03/29 04:26:50;;;;;;;;;;;10.00;99.90;;;10.25;59.86;98129.09;5039667;28;20300;-83
2024/03/29 04:29:17;;;;;;;;;;;10.00;99.90;;;10.26;59.97;98137.88;5038698;28;19926;-82
2024/03/29 04:31:46;;;;;;;;;;;10.00;99.90;;;10.25;59.84;98134.44;5039209;28;19947;-83
2024/03/29 04:34:12;;;;;;;;;;;10.00;99.90;;;10.26;60.17;98129.91;5039237;28;19929;-83
2024/03/29 04:36:39;;;;;;;;;;;10.00;99.90;;;10.26;60.19;98144.00;5037854;28;20410;-83
2024/03/29 04:39:07;;;;;;;;;;;10.00;99.90;;;10.26;60.34;98136.00;5037326;28;20032;-83
2024/03/29 04:41:35;;;;;;;;;;;10.00;99.90;;;10.25;60.74;98145.09;5037667;28;20304;-83
2024/03/29 04:44:02;;;;;;;;;;;10.00;99.90;;;10.23;61.20;98143.72;5037536;28;20277;-83
2024/03/29 04:46:31;;;;;;;;;;;10.00;99.90;;;10.22;61.99;98137.59;5038311;28;19929;-83
2024/03/29 04:48:59;;;;;;;;;;;9.90;99.90;;;10.21;62.56;98140.53;5038490;28;19931;-83
2024/03/29 04:51:26;;;;;;;;;;;9.90;99.90;;;10.20;63.32;98141.56;5038489;28;19961;-83
2024/03/29 04:53:53;;;;;;;;;;;9.90;99.90;;;10.17;63.70;98148.22;5038902;28;19925;-82
2024/03/29 04:56:21;;;;;;;;;;;9.90;99.90;;;10.15;64.51;98150.38;5036975;28;19975;-82
2024/03/29 04:58:50;;;;;;;;;;;9.90;99.90;;;10.12;64.90;98145.56;5038686;28;19932;-83
2024/03/29 05:01:17;;;;;;;;;;;9.80;99.90;;;10.10;64.66;98161.00;5038015;28;19925;-83
2024/03/29 05:03:44;;;;;;;;;;;9.80;99.90;;;10.07;64.89;98159.69;5038721;28;19925;-83
2024/03/29 05:06:11;;;;;;;;;;;9.70;99.90;;;10.06;65.59;98151.97;5038726;28;19975;-83
2024/03/29 05:08:39;;;;;;;;;;;9.80;99.90;;;10.03;65.98;98160.47;5038215;28;19988;-83
2024/03/29 05:11:07;;;;;;;;;;;9.70;99.90;;;10.01;66.34;98151.97;5039133;28;19925;-83
2024/03/29 05:13:34;;;;;;;;;;;9.70;99.90;;;9.98;66.27;98141.81;5039273;28;19957;-83
2024/03/29 05:16:03;;;;;;;;;;;9.70;99.90;;;9.96;66.43;98128.78;5038965;28;19929;-83
2024/03/29 05:18:30;;;;;;;;;;;9.70;99.90;;;9.97;66.80;98124.25;5039046;28;19925;-83
2024/03/29 05:20:58;;;;;;;;;;;9.70;99.90;;;9.96;66.91;98117.34;5020825;28;19925;-83
2024/03/29 05:23:24;;;;;;;;;;;9.70;99.90;;;9.95;67.17;98126.38;5038721;28;19926;-83
2024/03/29 05:25:52;;;;;;;;;;;9.70;99.90;;;9.95;67.11;98129.81;5053556;28;20009;-83
2024/03/29 05:28:19;;;;;;;;;;;9.60;99.90;;;9.94;66.84;98136.22;5020883;28;20019;-83
2024/03/29 05:30:46;;;;;;;;;;;9.60;99.90;;;9.95;67.24;98123.69;5037262;28;19932;-83
2024/03/29 05:33:15;;;;;;;;;;;9.70;99.90;;;9.94;67.52;98114.13;5053992;28;20023;-83
2024/03/29 05:35:42;;;;;;;;;;;9.60;99.90;;;9.92;67.60;98116.25;5037056;28;19925;-83
2024/03/29 05:38:09;;;;;;;;;;;9.60;99.90;;;9.90;67.90;98110.38;5054495;28;19929;-83
2024/03/29 05:40:37;;;;;;;;;;;9.60;99.90;;;9.88;67.83;98113.31;5037563;28;19925;-83
2024/03/29 05:43:05;;;;;;;;;;;9.60;99.90;;;9.87;68.00;98109.06;5053709;28;20016;-83
2024/03/29 05:45:32;;;;;;;;;;;9.60;99.90;;;9.86;68.27;98112.81;5039028;28;20380;-83
2024/03/29 05:48:00;;;;;;;;;;;9.60;99.90;;;9.86;68.54;98110.13;5037373;28;19932;-83
2024/03/29 05:50:28;;;;;;;;;;;9.60;99.90;;;9.86;68.69;98122.63;5038444;28;19925;-83
2024/03/29 05:52:56;;;;;;;;;;;9.60;99.90;;;9.87;68.97;98125.03;5020868;28;19933;-83
2024/03/29 05:55:23;;;;;;;;;;;9.50;99.90;;;9.83;68.95;98105.34;5036315;28;19956;-83
2024/03/29 05:57:50;;;;;;;;;;;9.50;99.90;;;9.82;69.11;98081.66;5036629;28;19979;-83
2024/03/29 06:00:18;;;;;;;;;;;9.50;99.90;;;9.80;69.28;98089.88;5036608;28;19960;-83
2024/03/29 06:02:47;;;;;;;;;;;9.50;99.90;;;9.79;69.32;98088.28;5036939;28;19925;-83
2024/03/29 06:05:14;;;;;;;;;;;9.50;99.90;;;9.77;69.98;98088.56;5036547;28;19997;-83
2024/03/29 06:07:43;;;;;;;;;;;9.50;99.90;;;9.77;69.49;98091.22;5036727;28;19929;-83
2024/03/29 06:10:11;;;;;;;;;;;9.50;99.90;;;9.74;69.74;98091.75;5038317;28;19929;-83
2024/03/29 06:12:39;;;;;;;;;;;9.40;99.90;;;9.73;69.83;98095.47;5053022;28;19988;-83
2024/03/29 06:17:52;;;;;;;;;;;9.40;99.90;;;9.73;69.59;98094.66;5037254;28;19925;-83
2024/03/29 06:20:19;;;;;;;;;;;9.40;99.90;;;9.74;69.63;98089.06;5037785;28;19926;-83
2024/03/29 06:22:47;;;;;;;;;;;9.40;99.90;;;9.76;69.58;98084.31;5036423;28;20020;-83
2024/03/29 06:25:16;;;;;;;;;;;9.50;99.90;;;9.77;69.51;98095.75;5020781;28;19948;-83
2024/03/29 06:27:47;;;;;;;;;;;9.40;99.90;;;9.74;69.43;98099.72;5035583;28;19996;-83
2024/03/29 06:30:15;;;;;;;;;;;9.40;99.90;;;9.74;69.59;98097.06;5038710;28;19925;-83
2024/03/29 06:32:42;;;;;;;;;;;9.40;99.90;;;9.74;69.44;98101.59;5036336;28;19926;-83
2024/03/29 06:35:10;;;;;;;;;;;9.40;99.90;;;9.72;69.26;98099.19;5019207;28;19964;-83
2024/03/29 06:37:38;;;;;;;;;;;9.40;99.90;;;9.73;69.58;98095.47;5018920;28;19925;-83
2024/03/29 06:40:11;;;;;;;;;;;9.50;99.90;;;9.74;70.11;98098.94;5037308;28;20365;-83
2024/03/29 06:42:41;;;;;;;;;;;9.40;99.90;;;9.75;70.29;98096.00;5035101;28;19932;-83
2024/03/29 06:45:10;;;;;;;;;;;9.50;99.90;;;9.75;70.26;98090.66;5036900;28;19931;-83
2024/03/29 06:47:37;;;;;;;;;;;9.50;99.90;;;9.76;70.23;98086.97;5001907;28;19931;-83
2024/03/29 06:50:06;;;;;;;;;;;9.50;99.90;;;9.77;70.64;98080.56;5036502;28;20023;-83
2024/03/29 06:52:33;;;;;;;;;;;9.50;99.90;;;9.79;70.74;98078.44;5035729;28;20400;-83
2024/03/29 06:55:03;;;;;;;;;;;9.50;99.90;;;9.81;70.82;98078.19;5036250;28;19963;-83
2024/03/29 06:57:35;;;;;;;;;;;9.50;99.90;;;9.84;70.68;98082.16;5038076;28;19943;-83
2024/03/29 07:00:04;;;;;;;;;;;9.60;99.90;;;9.80;70.99;98079.22;5036812;28;19932;-83
2024/03/29 07:02:31;;;;;;;;;;;9.50;99.90;;;9.83;71.03;98083.25;5036555;28;20320;-83
2024/03/29 07:05:05;;;;;;;;;;;9.60;99.90;;;9.83;70.74;98091.22;5038196;28;19925;-83
2024/03/29 07:07:32;;;;;;;;;;;9.60;99.90;;;9.85;71.06;98073.91;5038289;28;20507;-83
2024/03/29 07:09:59;;;;;;;;;;;9.60;99.90;;;9.79;70.74;98083.75;5036710;28;19968;-83
2024/03/29 07:12:27;;;;;;;;;;;9.60;99.90;;;9.80;70.68;98090.66;5036669;28;19975;-83
2024/03/29 07:14:56;;;;;;;;;;;9.60;99.90;;;9.86;71.43;98072.03;5020648;28;19925;-83
2024/03/29 07:17:23;;;;;;;;;;;9.60;99.90;;;9.88;71.83;98085.91;5036298;28;19932;-83
2024/03/29 07:19:51;;;;;;;;;;;9.70;99.90;;;9.89;72.14;98080.31;5036972;28;20376;-83
2024/03/29 07:22:19;;;;;;;;;;;9.70;99.90;;;9.91;72.54;98093.38;5053416;28;20031;-83
2024/03/29 07:24:47;;;;;;;;;;;9.70;99.90;;;9.94;72.60;98085.63;5023647;28;20347;-83
2024/03/29 07:27:17;;;;;;;;;;;9.80;99.90;;;9.93;72.23;98083.25;5040201;28;19929;-83
2024/03/29 07:29:45;;;;;;;;;;;9.80;99.90;;;9.98;72.37;98083.25;5053872;28;19929;-83
2024/03/29 07:32:15;;;;;;;;;;;9.80;99.90;;;9.99;72.11;98082.97;5041759;28;19925;-83
2024/03/29 07:34:43;;;;;;;;;;;9.90;99.90;;;10.00;72.52;98083.75;5040150;28;19956;-83
2024/03/29 07:37:14;;;;;;;;;;;9.90;99.90;;;10.03;72.80;98097.34;5040252;28;19948;-83
2024/03/29 07:39:42;;;;;;;;;;;9.90;99.90;;;10.02;73.18;98105.63;5041359;28;19935;-83
2024/03/29 07:42:09;;;;;;;;;;;9.90;99.90;;;9.98;73.03;98113.34;5040647;28;19925;-83
2024/03/29 07:44:37;;;;;;;;;;;9.90;99.90;;;9.98;73.32;98107.22;5040070;28;20024;-83
2024/03/29 07:47:04;;;;;;;;;;;9.90;99.90;;;9.98;73.22;98126.66;5056641;28;19925;-83
2024/03/29 07:49:33;;;;;;;;;;;9.90;99.90;;;10.01;73.33;98128.00;5039590;28;19999;-83
2024/03/29 07:52:02;;;;;;;;;;;10.00;99.90;;;10.03;73.69;98136.50;5056214;28;19925;-83
2024/03/29 07:54:29;;;;;;;;;;;10.00;99.90;;;10.07;73.80;98137.56;5038835;28;19925;-83
2024/03/29 07:56:56;;;;;;;;;;;10.00;99.90;;;10.07;74.06;98133.03;5038956;28;19932;-83
2024/03/29 07:59:27;;;;;;;;;;;10.00;99.90;;;10.04;73.98;98148.75;5022414;28;19976;-83
2024/03/29 08:01:55;;;;;;;;;;;10.00;99.90;;;10.03;74.51;98149.81;5039008;28;19948;-83
2024/03/29 08:04:23;;;;;;;;;;;10.00;99.90;;;10.03;75.11;98153.28;5022035;28;19951;-82
2024/03/29 08:06:52;;;;;;;;;;;10.00;99.90;;;10.07;75.46;98154.34;5040846;28;19928;-83
2024/03/29 08:09:20;;;;;;;;;;;10.10;99.90;;;10.15;75.04;98152.22;5038293;28;19925;-83
2024/03/29 08:11:47;;;;;;;;;;;10.10;99.90;;;10.17;74.95;98152.75;5040825;28;20016;-83
2024/03/29 08:14:15;;;;;;;;;;;10.10;99.90;;;10.12;75.90;98164.22;5038022;28;19925;-82
2024/03/29 08:16:42;;;;;;;;;;;10.10;99.90;;;10.11;76.78;98157.28;5039110;28;19925;-83
2024/03/29 08:19:09;;;;;;;;;;;10.10;99.90;;;10.07;77.74;98157.00;5055805;28;20367;-83
2024/03/29 08:21:37;;;;;;;;;;;10.10;99.90;;;10.05;78.41;98151.16;5038648;28;20366;-83
2024/03/29 08:24:06;;;;;;;;;;;10.10;99.90;;;10.13;77.98;98151.69;5039183;28;20315;-83
2024/03/29 08:26:34;;;;;;;;;;;10.10;99.90;;;10.19;77.80;98148.75;5041289;28;19979;-83
2024/03/29 08:29:01;;;;;;;;;;;10.10;99.90;;;10.21;77.85;98143.97;5039239;28;19925;-83
2024/03/29 08:31:29;;;;;;;;;;;10.20;99.90;;;10.23;78.44;98163.16;5039496;28;20016;-83
2024/03/29 08:33:56;;;;;;;;;;;10.20;99.90;;;10.26;78.39;98146.66;5038585;28;19925;-83
2024/03/29 08:36:23;;;;;;;;;;;10.20;99.90;;;10.28;78.45;98151.72;5040202;28;19925;-83
2024/03/29 08:38:51;;;;;;;;;;;10.20;99.90;;;10.34;77.88;98152.53;5023683;28;19925;-83
2024/03/29 08:44:22;;;;;;;;;;;10.30;99.90;;;10.45;78.35;98156.81;5037694;28;19931;-81
2024/03/29 08:46:50;;;;;;;;;;;10.30;99.90;;;10.49;78.38;98155.19;5038111;28;20419;-81
2024/03/29 08:49:17;;;;;;;;;;;10.40;99.90;;;10.51;78.76;98153.06;5039175;28;20044;-81
2024/03/29 08:51:44;;;;;;;;;;;10.40;99.90;;;10.52;78.59;98154.66;5037537;28;19929;-81
2024/03/29 08:54:13;;;;;;;;;;;10.40;99.90;;;10.49;78.78;98153.34;5038260;28;19925;-81
2024/03/29 08:56:41;;;;;;;;;;;10.30;99.90;;;10.49;78.96;98168.50;5036307;28;20012;-81
2024/03/29 08:59:09;;;;;;;;;;;10.40;99.90;;;10.51;78.89;98169.06;5036706;28;19929;-81
2024/03/29 09:01:37;;;;;;;;;;;10.40;99.90;;;10.56;79.44;98167.19;5019908;28;19925;-80
2024/03/29 09:04:07;;;;;;;;;;;10.40;99.90;;;10.57;79.74;98181.31;5052329;28;19929;-81
2024/03/29 09:06:35;;;;;;;;;;;10.50;99.90;;;10.58;79.73;98197.00;5053257;28;19971;-81
2024/03/29 09:09:02;;;;;;;;;;;10.50;99.90;;;10.61;79.88;98192.25;5037976;28;19979;-80
2024/03/29 09:11:30;;;;;;;;;;;10.50;99.90;;;10.63;79.82;98185.56;5037685;28;19975;-80
2024/03/29 09:13:59;;;;;;;;;;;10.50;99.90;;;10.54;80.13;98190.66;5037673;28;20004;-81
2024/03/29 09:16:26;;;;;;;;;;;10.50;99.90;;;10.56;80.59;98185.03;5036914;28;19971;-81
2024/03/29 09:18:55;;;;;;;;;;;10.60;99.90;;;10.64;80.81;98184.50;5036320;28;20767;-81
2024/03/29 09:21:22;;;;;;;;;;;10.60;99.90;;;10.72;80.68;98189.28;5036968;28;19925;-81
2024/03/29 09:23:52;;;;;;;;;;;10.70;99.90;;;10.79;80.91;98192.50;5036560;28;19925;-80
2024/03/29 09:26:20;;;;;;;;;;;10.70;99.90;;;10.83;81.29;98176.72;5036748;28;19932;-81
2024/03/29 09:28:47;;;;;;;;;;;10.80;99.90;;;10.85;81.77;98181.81;5020362;28;19929;-81
2024/03/29 09:31:15;;;;;;;;;;;10.80;99.90;;;10.87;81.17;98182.34;5036654;28;20355;-81
2024/03/29 09:33:43;;;;;;;;;;;10.90;99.90;;;10.92;81.00;98191.13;5036324;28;19933;-81
2024/03/29 09:36:11;;;;;;;;;;;10.90;99.90;;;10.97;80.97;98184.97;5038558;28;20023;-81
2024/03/29 09:38:42;;;;;;;;;;;11.00;99.90;;;10.99;80.09;98181.00;5037245;28;19929;-81
2024/03/29 09:41:14;;;;;;;;;;;11.00;99.90;;;11.01;80.08;98194.84;5020429;28;19929;-81
2024/03/29 09:43:44;;;;;;;;;;;11.00;99.90;;;11.06;81.71;98200.16;5021454;28;19968;-81
2024/03/29 09:46:12;;;;;;;;;;;11.00;99.90;;;11.00;81.00;98192.47;5036372;28;19925;-81
2024/03/29 09:48:42;;;;;;;;;;;11.10;99.90;;;11.04;81.32;98188.97;5038304;28;19936;-80
2024/03/29 09:51:13;;;;;;;;;;;11.00;99.90;;;11.09;82.37;98193.50;5038051;28;20012;-80
2024/03/29 09:53:42;;;;;;;;;;;11.10;99.90;;;11.11;82.05;98198.56;5036300;28;19975;-81
2024/03/29 09:56:10;;;;;;;;;;;11.10;99.90;;;11.15;82.08;98210.28;5037448;28;19929;-81
2024/03/29 09:58:39;;;;;;;;;;;11.20;99.90;;;11.17;82.82;98203.59;5038040;28;19925;-81
2024/03/29 10:01:09;;;;;;;;;;;11.20;99.90;;;11.14;81.76;98195.38;5037825;28;19925;-81
2024/03/29 10:03:40;;;;;;;;;;;11.20;99.90;;;11.21;81.47;98191.31;5035564;28;19932;-80
2024/03/29 10:06:09;;;;;;;;;;;11.20;99.90;;;11.26;80.70;98185.19;5036261;28;19929;-81
2024/03/29 10:08:37;;;;;;;;;;;11.30;99.90;;;11.28;79.84;98183.84;5035351;28;20414;-81
2024/03/29 10:11:04;;;;;;;;;;;11.40;99.90;;;11.31;79.77;98193.97;5037011;28;19929;-80
2024/03/29 10:13:32;;;;;;;;;;;11.40;99.90;;;11.35;79.69;98192.34;5035596;28;19925;-80
2024/03/29 10:16:02;;;;;;;;;;;11.40;99.90;;;11.38;80.25;98201.69;5036598;28;20369;-80
2024/03/29 10:18:38;;;;;;;;;;;11.40;99.90;;;11.40;80.25;98206.75;5035052;28;19975;-79
2024/03/29 10:21:08;;;;;;;;;;;11.50;99.90;;;11.43;80.21;98216.91;4989422;28;20377;-80
2024/03/29 10:23:36;;;;;;;;;;;11.50;99.90;;;11.46;79.62;98216.34;5035756;28;19956;-80
2024/03/29 10:26:10;;;;;;;;;;;11.50;99.90;;;11.48;79.82;98215.00;5036274;28;19925;-81
2024/03/29 10:28:40;;;;;;;;;;;11.50;99.90;;;11.46;79.05;98224.34;5034542;28;19979;-80
2024/03/29 10:31:08;;;;;;;;;;;11.60;99.90;;;11.46;79.21;98222.47;5034431;28;20133;-80
2024/03/29 10:33:35;;;;;;;;;;;11.60;99.90;;;11.49;79.24;98229.16;5034756;28;19929;-79
2024/03/29 10:36:05;;;;;;;;;;;11.50;99.90;;;11.51;79.12;98229.66;5035541;28;19925;-80
2024/03/29 10:38:36;;;;;;;;;;;11.60;99.90;;;11.51;79.35;98227.78;5036294;28;19925;-80
2024/03/29 10:41:06;;;;;;;;;;;11.60;99.90;;;11.51;80.35;98224.31;5036169;28;19975;-80
2024/03/29 10:43:33;;;;;;;;;;;11.50;99.90;;;11.51;79.99;98225.13;5035373;28;19947;-80
2024/03/29 10:46:01;;;;;;;;;;;11.50;99.90;;;11.53;79.26;98227.53;5033745;28;19990;-80
2024/03/29 10:48:29;;;;;;;;;;;11.50;99.90;;;11.54;78.88;98223.78;5034800;28;19948;-80
2024/03/29 10:50:58;;;;;;;;;;;11.50;99.90;;;11.58;79.18;98212.28;5035083;28;19960;-80
2024/03/29 10:53:28;;;;;;;;;;;11.60;99.90;;;11.66;80.34;98204.78;5033125;28;20331;-80
2024/03/29 10:56:01;;;;;;;;;;;11.70;99.90;;;11.73;79.49;98208.75;5036426;28;19929;-80
2024/03/29 10:58:31;;;;;;;;;;;11.80;99.90;;;11.78;79.26;98224.75;5036900;28;20375;-80
2024/03/29 11:00:59;;;;;;;;;;;11.80;99.90;;;11.79;78.39;98221.00;5037901;28;20396;-80
2024/03/29 11:03:33;;;;;;;;;;;11.90;99.90;;;11.90;78.21;98223.66;5038733;28;19963;-80
2024/03/29 11:06:05;;;;;;;;;;;12.00;99.90;;;11.98;79.25;98221.22;5054679;28;20027;-80
2024/03/29 11:08:37;;;;;;;;;;;12.10;99.90;;;12.04;80.39;98222.78;5040692;28;19925;-81
2024/03/29 11:11:10;;;;;;;;;;;12.20;99.90;;;12.09;80.53;98221.94;5040604;28;19972;-79
2024/03/29 11:13:41;;;;;;;;;;;12.20;99.90;;;12.10;80.21;98204.84;5022041;28;19929;-80
2024/03/29 11:16:10;;;;;;;;;;;12.20;99.90;;;12.14;78.38;98200.53;5039705;28;19929;-80
2024/03/29 11:18:38;;;;;;;;;;;12.30;99.90;;;12.21;78.47;98202.91;5039151;28;19926;-80
2024/03/29 11:21:09;;;;;;;;;;;12.40;99.90;;;12.27;77.57;98215.97;5002076;28;19929;-79
2024/03/29 11:23:36;;;;;;;;;;;12.40;99.90;;;12.42;77.34;98219.59;5001678;28;19948;-80
2024/03/29 11:26:06;;;;;;;;;;;12.60;99.90;;;12.56;78.42;98221.38;5016963;28;19930;-80
2024/03/29 11:28:35;;;;;;;;;;;12.70;99.90;;;12.63;75.51;98227.19;5017608;28;19995;-80
2024/03/29 11:31:06;;;;;;;;;;;12.80;99.90;;;12.70;75.65;98228.75;5017983;28;19933;-80
2024/03/29 11:33:36;;;;;;;;;;;12.90;99.90;;;12.77;75.31;98246.06;5000650;28;19925;-80
2024/03/29 11:36:11;;;;;;;;;;;13.00;99.90;;;12.89;75.79;98235.81;5018933;28;19932;-80
2024/03/29 11:38:39;;;;;;;;;;;13.10;99.90;;;13.00;74.26;98251.78;5003166;28;20332;-80
2024/03/29 11:41:08;;;;;;;;;;;13.20;99.90;;;13.12;75.08;98236.13;5018918;28;20029;-80
2024/03/29 11:43:38;;;;;;;;;;;13.40;99.90;;;13.17;72.72;98222.69;5019404;28;19926;-81
2024/03/29 11:46:10;;;;;;;;;;;13.50;99.90;;;13.12;71.69;98214.72;5000954;28;19932;-80
2024/03/29 11:48:38;;;;;;;;;;;13.40;99.90;;;13.08;71.70;98219.06;5001132;28;19961;-80
2024/03/29 11:51:08;;;;;;;;;;;13.40;99.90;;;13.03;70.96;98195.00;5000910;28;19952;-79
2024/03/29 11:53:35;;;;;;;;;;;13.30;99.90;;;13.01;72.49;98214.00;5000320;28;20634;-79
2024/03/29 11:56:04;;;;;;;;;;;13.20;99.90;;;13.04;74.34;98221.50;5001054;28;20028;-80
2024/03/29 11:58:33;;;;;;;;;;;13.20;99.90;;;13.04;73.04;98218.03;5007590;28;19936;-80
2024/03/29 12:01:02;;;;;;;;;;;13.30;99.90;;;13.06;71.79;98254.09;5019039;28;19930;-80
2024/03/29 12:03:31;;;;;;;;;;;13.30;99.90;;;13.10;72.44;98281.09;5019068;28;19925;-81
2024/03/29 12:06:01;;;;;;;;;;;13.30;99.90;;;13.11;71.46;98283.50;5020394;28;20448;-80
2024/03/29 12:08:30;;;;;;;;;;;13.30;99.90;;;13.11;72.14;98282.69;5000995;28;19987;-80
2024/03/29 12:10:59;;;;;;;;;;;13.30;99.90;;;13.09;72.02;98287.56;5018217;28;19931;-79
2024/03/29 12:13:26;;;;;;;;;;;13.30;99.90;;;13.11;72.29;98280.81;5000769;28;19984;-80
2024/03/29 12:15:53;;;;;;;;;;;13.30;99.90;;;13.15;71.53;98287.22;5019220;28;20004;-80
2024/03/29 12:18:23;;;;;;;;;;;13.40;99.90;;;13.19;70.81;98295.47;5019030;28;19929;-79
2024/03/29 12:20:51;;;;;;;;;;;13.40;99.90;;;13.18;69.54;98290.44;5018574;28;19932;-81
2024/03/29 12:23:19;;;;;;;;;;;13.40;99.90;;;13.20;69.66;98286.38;5019409;28;19930;-80
2024/03/29 12:25:47;;;;;;;;;;;13.40;99.90;;;13.24;69.50;98297.34;5034685;28;19930;-80
2024/03/29 12:28:17;;;;;;;;;;;13.40;99.90;;;13.24;68.34;98289.31;5018833;28;19971;-80
2024/03/29 12:30:52;;;;;;;;;;;13.40;99.90;;;13.24;66.53;98292.00;5016859;28;19957;-80
2024/03/29 12:33:25;;;;;;;;;;;13.40;99.90;;;13.26;66.66;98309.34;5018465;28;20467;-81
2024/03/29 12:35:56;;;;;;;;;;;13.50;99.90;;;13.23;66.03;98296.56;5019237;28;19929;-81
2024/03/29 12:38:24;;;;;;;;;;;13.50;99.90;;;13.22;64.92;98294.13;5019470;28;19926;-80
2024/03/29 12:40:55;;;;;;;;;;;13.50;99.90;;;13.25;65.95;98301.63;5018824;28;20030;-79
2024/03/29 12:43:24;;;;;;;;;;;13.50;99.90;;;13.31;66.09;98309.31;5048484;28;20411;-81
2024/03/29 12:45:53;;;;;;;;;;;13.50;99.90;;;13.33;64.92;98307.16;5040253;28;20027;-80
2024/03/29 12:48:24;;;;;;;;;;;13.50;99.90;;;13.31;65.36;98303.16;5058930;28;19928;-80
2024/03/29 12:50:53;;;;;;;;;;;13.50;99.90;;;13.28;63.98;98301.06;5040932;28;19940;-80
2024/03/29 12:53:24;;;;;;;;;;;13.50;99.90;;;13.28;64.07;98301.84;5041486;28;19928;-80
2024/03/29 12:55:51;;;;;;;;;;;13.50;99.90;;;13.32;65.81;98307.44;5024483;28;19929;-79
2024/03/29 12:58:21;;;;;;;;;;;13.50;99.90;;;13.32;65.14;98304.75;5040378;28;19935;-81
2024/03/29 13:00:49;;;;;;;;;;;13.50;99.90;;;13.36;64.15;98305.78;5040452;28;20289;-80
2024/03/29 13:03:17;;;;;;;;;;;13.60;99.90;;;13.36;64.62;98316.50;5039620;28;19936;-79
2024/03/29 13:05:50;;;;;;;;;;;13.60;99.90;;;13.39;63.81;98323.97;5057967;28;19931;-80
2024/03/29 13:08:17;;;;;;;;;;;13.60;99.90;;;13.45;64.49;98314.00;5057001;28;20427;-80
2024/03/29 13:10:45;;;;;;;;;;;13.60;99.90;;;13.50;64.20;98309.41;5057724;28;20307;-80
2024/03/29 13:13:14;;;;;;;;;;;13.70;99.90;;;13.57;62.15;98296.47;5057937;28;19947;-80
2024/03/29 13:15:43;;;;;;;;;;;13.80;99.90;;;13.59;61.60;98291.63;5056916;28;19925;-81
2024/03/29 13:18:12;;;;;;;;;;;13.80;99.90;;;13.64;62.78;98290.78;5040160;28;20317;-81
2024/03/29 13:20:41;;;;;;;;;;;13.90;99.90;;;13.67;62.79;98300.13;5039448;28;20383;-80